createdAt,value
2019-03-09T00:01:19.148Z,6.10
2019-03-09T00:03:46.894Z,6.00
2019-03-09T00:06:21.009Z,6.10
2019-03-09T00:08:48.896Z,6.00
2019-03-09T00:11:16.929Z,6.00
2019-03-09T00:13:44.786Z,6.00
2019-03-09T00:16:12.780Z,6.10
2019-03-09T00:18:46.503Z,6.10
2019-03-09T00:21:14.776Z,6.10
2019-03-09T00:24:12.799Z,6.10
2019-03-09T00:26:53.411Z,6.00
2019-03-09T00:29:27.980Z,6.00
2019-03-09T00:32:02.338Z,6.00
2019-03-09T00:34:33.621Z,5.90
2019-03-09T00:37:01.895Z,5.90
2019-03-09T00:39:32.611Z,6.00
2019-03-09T00:42:01.490Z,6.10
2019-03-09T00:44:29.334Z,6.10
2019-03-09T00:47:00.240Z,6.20
2019-03-09T00:49:28.704Z,6.20
2019-03-09T00:51:56.452Z,6.20
2019-03-09T00:54:28.002Z,6.30
2019-03-09T00:56:55.813Z,6.20
2019-03-09T00:59:26.694Z,6.30
2019-03-09T01:01:54.920Z,6.40
2019-03-09T01:04:22.588Z,6.40
2019-03-09T01:06:50.718Z,6.40
2019-03-09T01:09:18.943Z,6.40
2019-03-09T01:11:47.803Z,6.40
2019-03-09T01:14:15.561Z,6.40
2019-03-09T01:16:43.245Z,6.40
2019-03-09T01:19:11.185Z,6.40
2019-03-09T01:21:39.690Z,6.40
2019-03-09T01:24:07.760Z,6.50
2019-03-09T01:26:35.497Z,6.60
2019-03-09T01:29:03.498Z,6.60
2019-03-09T01:31:32.004Z,6.50
2019-03-09T01:34:00.209Z,6.50
2019-03-09T01:36:28.404Z,6.50
2019-03-09T01:38:56.100Z,6.50
2019-03-09T01:41:24.277Z,6.40
2019-03-09T01:43:52.533Z,6.40
2019-03-09T01:46:20.363Z,6.40
2019-03-09T01:48:48.271Z,6.30
2019-03-09T01:51:19.067Z,6.30
2019-03-09T01:53:47.134Z,6.20
2019-03-09T01:56:15.187Z,6.20
2019-03-09T01:58:43.449Z,6.20
2019-03-09T02:01:11.278Z,6.20
2019-03-09T02:03:39.315Z,6.20
2019-03-09T02:06:07.688Z,6.20
2019-03-09T02:08:35.473Z,6.20
2019-03-09T02:11:03.737Z,6.30
2019-03-09T02:13:31.537Z,6.30
2019-03-09T02:15:59.569Z,6.40
2019-03-09T02:18:27.628Z,6.40
2019-03-09T02:20:55.522Z,6.40
2019-03-09T02:23:23.583Z,6.50
2019-03-09T02:25:52.578Z,6.50
2019-03-09T02:28:20.299Z,6.40
2019-03-09T02:30:48.338Z,6.50
2019-03-09T02:33:16.620Z,6.50
2019-03-09T02:35:44.453Z,6.50
2019-03-09T02:38:25.276Z,6.50
2019-03-09T02:40:53.310Z,6.50
2019-03-09T02:43:21.365Z,6.50
2019-03-09T02:45:49.334Z,6.50
2019-03-09T02:48:17.129Z,6.50
2019-03-09T02:50:56.973Z,6.50
2019-03-09T02:53:25.970Z,6.50
2019-03-09T02:55:54.235Z,6.50
2019-03-09T02:58:25.472Z,6.50
2019-03-09T03:01:11.636Z,6.50
2019-03-09T03:03:39.600Z,6.50
2019-03-09T03:06:07.820Z,6.50
2019-03-09T03:08:36.050Z,6.60
2019-03-09T03:11:04.299Z,6.60
2019-03-09T03:13:32.465Z,6.60
2019-03-09T03:16:00.347Z,6.60
2019-03-09T03:18:28.213Z,6.70
2019-03-09T03:20:56.034Z,6.70
2019-03-09T03:23:23.899Z,6.70
2019-03-09T03:25:52.103Z,6.70
2019-03-09T03:28:19.865Z,6.60
2019-03-09T03:30:47.971Z,6.70
2019-03-09T03:33:16.320Z,6.70
2019-03-09T03:35:44.124Z,6.70
2019-03-09T03:38:12.111Z,6.60
2019-03-09T03:40:39.923Z,6.50
2019-03-09T03:43:07.885Z,6.20
2019-03-09T03:45:35.612Z,6.00
2019-03-09T03:48:03.701Z,5.80
2019-03-09T03:50:31.427Z,5.60
2019-03-09T03:52:59.627Z,5.50
2019-03-09T03:55:27.663Z,5.40
2019-03-09T03:57:55.703Z,5.30
2019-03-09T04:00:24.180Z,5.30
2019-03-09T04:02:51.826Z,5.30
2019-03-09T04:05:19.448Z,5.30
2019-03-09T04:07:47.038Z,5.40
2019-03-09T04:10:14.939Z,5.30
2019-03-09T04:12:42.988Z,5.30
2019-03-09T04:15:10.691Z,5.20
2019-03-09T04:17:38.331Z,5.20
2019-03-09T04:20:10.068Z,5.20
2019-03-09T04:22:37.683Z,5.20
2019-03-09T04:25:05.526Z,5.10
2019-03-09T04:27:35.402Z,5.10
2019-03-09T04:30:03.414Z,5.10
2019-03-09T04:32:31.683Z,5.10
2019-03-09T04:34:59.315Z,5.10
2019-03-09T04:37:27.480Z,5.10
2019-03-09T04:39:55.230Z,5.10
2019-03-09T04:42:22.776Z,5.10
2019-03-09T04:44:50.385Z,5.10
2019-03-09T04:47:18.057Z,5.10
2019-03-09T04:49:45.650Z,5.10
2019-03-09T04:52:13.331Z,5.10
2019-03-09T04:54:41.037Z,5.10
2019-03-09T04:57:08.635Z,5.10
2019-03-09T04:59:38.399Z,5.00
2019-03-09T05:02:06.575Z,5.10
2019-03-09T05:04:45.656Z,5.00
2019-03-09T05:07:28.892Z,5.10
2019-03-09T05:10:26.498Z,5.20
2019-03-09T05:12:57.801Z,5.00
2019-03-09T05:15:25.464Z,5.10
2019-03-09T05:17:53.140Z,5.10
2019-03-09T05:20:20.788Z,5.10
2019-03-09T05:22:48.398Z,5.10
2019-03-09T05:25:16.094Z,5.20
2019-03-09T05:27:43.735Z,5.10
2019-03-09T05:30:30.835Z,5.10
2019-03-09T05:32:58.513Z,5.10
2019-03-09T05:35:26.260Z,5.10
2019-03-09T05:37:53.915Z,5.10
2019-03-09T05:40:21.579Z,5.10
2019-03-09T05:42:49.146Z,5.10
2019-03-09T05:45:16.746Z,5.10
2019-03-09T05:47:44.450Z,5.20
2019-03-09T05:50:12.063Z,5.20
2019-03-09T05:52:39.672Z,5.20
2019-03-09T05:55:15.462Z,5.30
2019-03-09T05:57:43.062Z,5.30
2019-03-09T06:00:12.417Z,5.30
2019-03-09T06:02:40.386Z,5.40
2019-03-09T06:05:46.262Z,5.40
2019-03-09T06:08:13.990Z,5.30
2019-03-09T06:10:41.658Z,5.40
2019-03-09T06:13:09.329Z,5.50
2019-03-09T06:15:38.213Z,5.70
2019-03-09T06:18:06.512Z,5.70
2019-03-09T06:20:34.234Z,5.70
2019-03-09T06:23:02.179Z,5.70
2019-03-09T06:25:29.778Z,5.70
2019-03-09T06:27:57.359Z,5.70
2019-03-09T06:30:25.015Z,5.70
2019-03-09T06:33:36.148Z,5.80
2019-03-09T06:36:39.238Z,5.80
2019-03-09T06:39:15.068Z,5.90
2019-03-09T06:42:45.232Z,5.90
2019-03-09T06:45:15.715Z,5.90
2019-03-09T06:47:46.431Z,5.90
2019-03-09T06:50:18.222Z,5.90
2019-03-09T06:52:45.854Z,5.90
2019-03-09T06:55:15.451Z,5.90
2019-03-09T06:57:43.094Z,5.90
2019-03-09T07:00:39.438Z,6.00
2019-03-09T07:03:09.538Z,6.10
2019-03-09T07:05:37.391Z,6.10
2019-03-09T07:08:05.022Z,6.20
2019-03-09T07:10:37.971Z,6.30
2019-03-09T07:13:05.556Z,6.30
2019-03-09T07:15:41.122Z,6.30
2019-03-09T07:18:16.502Z,6.30
2019-03-09T07:20:49.906Z,6.20
2019-03-09T07:23:20.586Z,6.20
2019-03-09T07:25:48.225Z,6.30
2019-03-09T07:28:16.194Z,6.40
2019-03-09T07:30:44.002Z,6.50
2019-03-09T07:33:11.819Z,6.50
2019-03-09T07:35:42.306Z,6.50
2019-03-09T07:38:10.213Z,6.60
2019-03-09T07:40:38.177Z,6.80
2019-03-09T07:43:05.817Z,6.80
2019-03-09T07:45:33.481Z,6.90
2019-03-09T07:48:01.143Z,7.30
2019-03-09T07:50:29.078Z,7.40
2019-03-09T07:52:56.657Z,8.10
2019-03-09T07:55:27.128Z,7.60
2019-03-09T07:58:02.005Z,8.20
2019-03-09T08:00:29.696Z,7.60
2019-03-09T08:02:57.476Z,7.50
2019-03-09T08:05:25.520Z,7.50
2019-03-09T08:07:55.036Z,7.80
2019-03-09T08:10:23.195Z,7.70
2019-03-09T08:12:51.090Z,7.60
2019-03-09T08:15:19.081Z,7.60
2019-03-09T08:17:47.014Z,7.80
2019-03-09T08:20:15.862Z,7.80
2019-03-09T08:22:43.533Z,7.70
2019-03-09T08:25:11.721Z,7.70
2019-03-09T08:27:42.822Z,7.80
2019-03-09T08:30:15.217Z,7.70
2019-03-09T08:32:45.777Z,7.70
2019-03-09T08:35:15.505Z,7.90
2019-03-09T08:37:43.172Z,8.10
2019-03-09T08:40:11.427Z,8.40
2019-03-09T08:42:40.014Z,8.50
2019-03-09T08:45:08.153Z,8.40
2019-03-09T08:47:36.073Z,8.40
2019-03-09T08:50:04.332Z,8.20
2019-03-09T08:52:34.260Z,8.30
2019-03-09T08:55:04.602Z,8.40
2019-03-09T08:57:35.103Z,8.50
2019-03-09T09:00:03.642Z,8.50
2019-03-09T09:02:31.251Z,8.40
2019-03-09T09:04:58.914Z,8.60
2019-03-09T09:07:26.573Z,9.00
2019-03-09T09:09:54.510Z,8.50
2019-03-09T09:12:22.121Z,8.80
2019-03-09T09:14:49.846Z,8.50
2019-03-09T09:17:17.498Z,8.50
2019-03-09T09:19:45.473Z,8.70
2019-03-09T09:22:13.420Z,8.50
2019-03-09T09:24:41.130Z,8.50
2019-03-09T09:27:10.328Z,8.50
2019-03-09T09:29:41.246Z,8.50
2019-03-09T09:32:09.156Z,8.60
2019-03-09T09:34:39.463Z,8.70
2019-03-09T09:37:07.286Z,8.60
2019-03-09T09:39:35.806Z,8.70
2019-03-09T09:42:05.294Z,8.50
2019-03-09T09:44:33.715Z,8.70
2019-03-09T09:47:04.709Z,8.80
2019-03-09T09:49:32.312Z,8.60
2019-03-09T09:52:00.366Z,8.80
2019-03-09T09:54:28.195Z,8.70
2019-03-09T09:56:56.148Z,8.60
2019-03-09T09:59:23.840Z,8.50
2019-03-09T10:01:51.464Z,8.50
2019-03-09T10:04:19.200Z,8.40
2019-03-09T10:06:47.164Z,8.40
2019-03-09T10:09:14.762Z,8.10
2019-03-09T10:11:42.384Z,7.80
2019-03-09T10:14:10.409Z,7.80
2019-03-09T10:16:38.125Z,7.90
2019-03-09T10:19:05.777Z,7.90
2019-03-09T10:21:33.510Z,7.90
2019-03-09T10:24:01.170Z,7.80
2019-03-09T10:26:32.281Z,7.70
2019-03-09T10:29:00.385Z,7.40
2019-03-09T10:31:29.036Z,7.40
2019-03-09T10:33:59.081Z,7.40
2019-03-09T10:36:30.920Z,7.40
2019-03-09T10:38:59.304Z,7.40
2019-03-09T10:41:30.459Z,7.50
2019-03-09T10:44:01.759Z,7.50
2019-03-09T10:46:30.098Z,7.60
2019-03-09T10:48:57.813Z,7.50
2019-03-09T10:51:28.568Z,7.60
2019-03-09T10:53:56.274Z,7.80
2019-03-09T10:56:23.882Z,7.90
2019-03-09T10:58:51.694Z,8.00
2019-03-09T11:01:22.113Z,8.10
2019-03-09T11:03:54.304Z,8.20
2019-03-09T11:06:22.230Z,8.30
2019-03-09T11:08:52.458Z,8.40
2019-03-09T11:11:20.378Z,8.60
2019-03-09T11:13:54.831Z,8.50
2019-03-09T11:16:22.733Z,8.70
2019-03-09T11:18:50.616Z,8.70
2019-03-09T11:21:21.124Z,8.80
2019-03-09T11:23:51.423Z,8.80
2019-03-09T11:26:24.694Z,8.90
2019-03-09T11:28:52.375Z,8.90
2019-03-09T11:31:20.076Z,9.00
2019-03-09T11:33:49.953Z,9.00
2019-03-09T11:36:17.645Z,9.10
2019-03-09T11:38:45.532Z,9.20
2019-03-09T11:41:19.080Z,9.30
2019-03-09T11:43:42.737Z,9.20
2019-03-09T11:46:10.403Z,9.30
2019-03-09T11:48:38.291Z,9.30
2019-03-09T11:51:06.349Z,9.30
2019-03-09T11:53:36.885Z,9.30
2019-03-09T11:56:04.528Z,9.40
2019-03-09T11:58:32.328Z,9.30
2019-03-09T12:01:00.721Z,9.30
2019-03-09T12:03:28.765Z,9.40
2019-03-09T12:05:56.475Z,9.40
2019-03-09T12:08:24.111Z,9.50
2019-03-09T12:10:51.789Z,9.40
2019-03-09T12:13:19.422Z,9.50
2019-03-09T12:15:49.547Z,9.70
2019-03-09T12:18:20.786Z,9.60
2019-03-09T12:20:52.612Z,9.60
2019-03-09T12:23:22.204Z,9.50
2019-03-09T12:25:49.989Z,9.40
2019-03-09T12:28:20.777Z,9.50
2019-03-09T12:30:48.676Z,9.50
2019-03-09T12:33:16.489Z,9.40
2019-03-09T12:35:45.729Z,9.50
2019-03-09T12:38:16.272Z,9.60
2019-03-09T12:40:47.310Z,9.70
2019-03-09T12:43:15.160Z,9.80
2019-03-09T12:45:57.553Z,9.70
2019-03-09T12:48:28.186Z,9.60
2019-03-09T12:50:56.284Z,9.50
2019-03-09T12:53:26.990Z,9.30
2019-03-09T12:55:54.818Z,9.30
2019-03-09T12:58:22.754Z,9.10
2019-03-09T13:00:50.439Z,9.10
2019-03-09T13:03:18.233Z,9.30
2019-03-09T13:05:48.461Z,9.20
2019-03-09T13:08:18.185Z,9.30
2019-03-09T13:10:46.488Z,9.20
2019-03-09T13:13:14.176Z,9.20
2019-03-09T13:15:42.023Z,9.20
2019-03-09T13:18:10.951Z,9.20
2019-03-09T13:20:38.989Z,9.30
2019-03-09T13:23:06.690Z,9.40
2019-03-09T13:25:35.522Z,9.40
2019-03-09T13:28:03.209Z,9.40
2019-03-09T13:30:33.778Z,9.30
2019-03-09T13:33:01.516Z,9.50
2019-03-09T13:35:29.575Z,9.50
2019-03-09T13:38:00.315Z,9.50
2019-03-09T13:40:28.017Z,9.40
2019-03-09T13:43:00.495Z,9.50
2019-03-09T13:45:32.074Z,9.50
2019-03-09T13:48:02.270Z,9.60
2019-03-09T13:50:31.615Z,9.60
2019-03-09T13:53:01.585Z,9.50
2019-03-09T13:55:30.806Z,9.80
2019-03-09T13:58:01.331Z,9.90
2019-03-09T14:00:39.721Z,9.70
2019-03-09T14:03:03.263Z,9.80
2019-03-09T14:05:32.010Z,9.80
2019-03-09T14:08:01.426Z,9.70
2019-03-09T14:10:29.587Z,9.80
2019-03-09T14:12:57.731Z,9.70
2019-03-09T14:15:28.097Z,9.60
2019-03-09T14:17:56.392Z,9.50
2019-03-09T14:20:26.129Z,9.50
2019-03-09T14:22:53.792Z,9.50
2019-03-09T14:25:21.828Z,9.40
2019-03-09T14:27:50.132Z,9.40
2019-03-09T14:30:18.561Z,9.40
2019-03-09T14:32:46.483Z,9.50
2019-03-09T14:35:54.778Z,9.60
2019-03-09T14:38:22.504Z,9.60
2019-03-09T14:40:50.321Z,9.60
2019-03-09T14:43:17.998Z,9.70
2019-03-09T14:45:45.673Z,9.70
2019-03-09T14:48:13.817Z,9.70
2019-03-09T14:50:43.246Z,9.80
2019-03-09T14:53:11.033Z,9.80
2019-03-09T14:55:38.799Z,9.90
2019-03-09T14:58:06.468Z,9.80
2019-03-09T15:00:34.393Z,9.80
2019-03-09T15:03:03.518Z,9.80
2019-03-09T15:05:31.344Z,9.70
2019-03-09T15:08:04.156Z,9.70
2019-03-09T15:10:32.017Z,9.70
2019-03-09T15:12:59.652Z,9.70
2019-03-09T15:15:30.217Z,9.50
2019-03-09T15:18:07.846Z,9.30
2019-03-09T15:20:35.542Z,9.20
2019-03-09T15:23:03.401Z,9.20
2019-03-09T15:25:32.462Z,9.20
2019-03-09T15:28:00.109Z,9.00
2019-03-09T15:30:28.682Z,8.80
2019-03-09T15:32:56.419Z,8.80
2019-03-09T15:35:24.044Z,8.90
2019-03-09T15:37:55.126Z,8.50
2019-03-09T15:40:23.113Z,8.40
2019-03-09T15:42:50.695Z,8.40
2019-03-09T15:45:18.622Z,8.40
2019-03-09T15:47:46.594Z,8.40
2019-03-09T15:50:18.217Z,8.60
2019-03-09T15:52:47.798Z,8.70
2019-03-09T15:55:18.372Z,8.80
2019-03-09T15:57:50.940Z,8.90
2019-03-09T16:00:18.752Z,9.00
2019-03-09T16:02:46.586Z,8.90
2019-03-09T16:05:14.447Z,8.70
2019-03-09T16:07:46.455Z,8.60
2019-03-09T16:10:14.477Z,8.40
2019-03-09T16:12:42.209Z,8.30
2019-03-09T16:15:11.276Z,8.50
2019-03-09T16:17:41.226Z,8.50
2019-03-09T16:20:18.344Z,8.40
2019-03-09T16:22:49.193Z,8.50
2019-03-09T16:25:17.141Z,8.40
2019-03-09T16:27:47.213Z,8.50
2019-03-09T16:30:23.126Z,8.40
2019-03-09T16:32:50.836Z,8.40
2019-03-09T16:35:19.236Z,8.50
2019-03-09T16:37:47.000Z,8.80
2019-03-09T16:40:15.482Z,8.70
2019-03-09T16:42:46.121Z,8.30
2019-03-09T16:45:16.170Z,8.20
2019-03-09T16:47:44.741Z,8.10
2019-03-09T16:50:13.532Z,8.00
2019-03-09T16:52:46.220Z,7.90
2019-03-09T16:55:17.170Z,7.90
2019-03-09T16:57:45.477Z,8.00
2019-03-09T17:00:21.458Z,8.00
2019-03-09T17:02:50.246Z,8.00
2019-03-09T17:05:18.141Z,8.00
2019-03-09T17:10:34.591Z,8.00
2019-03-09T17:13:10.541Z,8.10
2019-03-09T17:15:44.804Z,8.00
2019-03-09T17:18:15.681Z,8.00
2019-03-09T17:20:46.719Z,8.00
2019-03-09T17:23:17.022Z,8.20
2019-03-09T17:25:44.773Z,8.30
2019-03-09T17:28:12.394Z,8.30
2019-03-09T17:30:40.489Z,8.40
2019-03-09T17:33:13.748Z,8.50
2019-03-09T17:35:41.314Z,8.40
2019-03-09T17:38:09.070Z,8.60
2019-03-09T17:40:36.927Z,8.70
2019-03-09T17:43:05.543Z,9.00
2019-03-09T17:45:37.959Z,9.00
2019-03-09T17:48:05.755Z,9.00
2019-03-09T17:50:37.756Z,9.00
2019-03-09T17:53:09.184Z,9.20
2019-03-09T17:55:36.846Z,9.10
2019-03-09T17:58:05.076Z,9.20
2019-03-09T18:00:42.589Z,9.20
2019-03-09T18:03:04.870Z,9.00
2019-03-09T18:05:33.355Z,8.70
2019-03-09T18:08:02.661Z,8.60
2019-03-09T18:10:34.072Z,8.40
2019-03-09T18:13:07.170Z,8.30
2019-03-09T18:15:34.786Z,8.20
2019-03-09T18:18:03.504Z,8.10
2019-03-09T18:20:31.262Z,8.10
2019-03-09T18:22:58.963Z,8.10
2019-03-09T18:25:26.837Z,8.10
2019-03-09T18:27:54.740Z,8.10
2019-03-09T18:30:22.565Z,8.10
2019-03-09T18:32:53.623Z,8.30
2019-03-09T18:35:23.878Z,8.30
2019-03-09T18:37:59.216Z,6.60
2019-03-09T18:40:28.276Z,6.30
2019-03-09T18:42:56.293Z,6.20
2019-03-09T18:45:24.573Z,6.10
2019-03-09T18:47:53.461Z,6.10
2019-03-09T18:50:21.691Z,6.10
2019-03-09T18:52:55.330Z,6.00
2019-03-09T18:55:30.202Z,6.00
2019-03-09T18:58:00.252Z,6.00
2019-03-09T19:00:30.723Z,6.00
2019-03-09T19:03:03.102Z,6.10
2019-03-09T19:05:34.000Z,6.10
2019-03-09T19:08:04.771Z,6.00
2019-03-09T19:10:32.855Z,6.00
2019-03-09T19:13:00.492Z,6.00
2019-03-09T19:15:34.235Z,6.00
2019-03-09T19:18:02.064Z,6.10
2019-03-09T19:20:29.894Z,6.20
2019-03-09T19:22:57.584Z,6.20
2019-03-09T19:25:25.432Z,6.20
2019-03-09T19:27:54.265Z,6.30
2019-03-09T19:30:22.307Z,6.30
2019-03-09T19:32:59.807Z,6.30
2019-03-09T19:35:20.237Z,6.30
2019-03-09T19:37:50.860Z,6.20
2019-03-09T19:40:22.761Z,6.20
2019-03-09T19:42:50.638Z,6.20
2019-03-09T19:45:35.049Z,6.20
2019-03-09T19:48:05.266Z,6.10
2019-03-09T19:50:34.448Z,6.10
2019-03-09T19:53:03.140Z,6.10
2019-03-09T19:55:33.562Z,6.00
2019-03-09T19:58:03.504Z,6.10
2019-03-09T20:00:37.707Z,6.00
2019-03-09T20:03:06.860Z,6.10
2019-03-09T20:05:40.911Z,6.10
2019-03-09T20:08:26.469Z,6.20
2019-03-09T20:11:07.483Z,6.10
2019-03-09T20:13:37.773Z,6.10
2019-03-09T20:16:08.598Z,6.10
2019-03-09T20:18:39.152Z,6.10
2019-03-09T20:21:07.687Z,6.10
2019-03-09T20:23:40.171Z,6.10
2019-03-09T20:26:18.103Z,6.10
2019-03-09T20:28:47.824Z,6.00
2019-03-09T20:31:16.745Z,6.00
2019-03-09T20:33:49.339Z,6.00
2019-03-09T20:36:22.655Z,6.00
2019-03-09T20:38:50.827Z,5.90
2019-03-09T20:41:18.703Z,5.90
2019-03-09T20:43:46.700Z,5.90
2019-03-09T20:46:14.826Z,5.90
2019-03-09T20:48:43.148Z,5.90
2019-03-09T20:51:17.317Z,5.90
2019-03-09T20:53:48.226Z,5.90
2019-03-09T20:56:19.223Z,5.90
2019-03-09T20:58:49.846Z,6.00
2019-03-09T21:01:22.644Z,6.10
2019-03-09T21:03:53.658Z,6.10
2019-03-09T21:06:24.695Z,6.10
2019-03-09T21:08:52.935Z,6.30
2019-03-09T21:11:20.649Z,6.30
2019-03-09T21:13:54.799Z,6.30
2019-03-09T21:16:22.782Z,6.30
2019-03-09T21:18:50.386Z,6.30
2019-03-09T21:21:27.032Z,6.30
2019-03-09T21:23:54.966Z,6.40
2019-03-09T21:26:25.933Z,6.30
2019-03-09T21:28:54.093Z,6.30
2019-03-09T21:31:22.361Z,6.30
2019-03-09T21:33:51.096Z,6.30
2019-03-09T21:36:28.451Z,6.30
2019-03-09T21:38:58.852Z,6.40
2019-03-09T21:41:26.461Z,6.40
2019-03-09T21:43:54.032Z,6.40
2019-03-09T21:46:22.221Z,6.40
2019-03-09T21:48:50.756Z,6.40
2019-03-09T21:51:21.534Z,6.40
2019-03-09T21:53:52.319Z,6.40
2019-03-09T21:56:20.008Z,6.40
2019-03-09T21:58:47.984Z,6.40
2019-03-09T22:01:16.220Z,6.40
2019-03-09T22:03:44.115Z,6.50
2019-03-09T22:06:16.956Z,6.50
2019-03-09T22:08:44.650Z,6.60
2019-03-09T22:11:12.502Z,6.60
2019-03-09T22:13:40.253Z,6.60
2019-03-09T22:16:08.843Z,6.60
2019-03-09T22:18:36.626Z,6.50
2019-03-09T22:21:06.555Z,6.50
2019-03-09T22:23:43.682Z,6.50
2019-03-09T22:26:06.063Z,6.50
2019-03-09T22:28:34.052Z,6.50
2019-03-09T22:31:01.661Z,6.50
2019-03-09T22:33:32.229Z,6.50
2019-03-09T22:35:59.891Z,6.50
2019-03-09T22:38:29.273Z,6.50
2019-03-09T22:40:57.135Z,6.50
2019-03-09T22:43:24.810Z,6.60
2019-03-09T22:45:52.617Z,6.50
2019-03-09T22:48:20.405Z,6.60
2019-03-09T22:50:48.245Z,6.60
2019-03-09T22:53:15.970Z,6.60
2019-03-09T22:55:46.126Z,6.60
2019-03-09T22:58:18.664Z,6.60
2019-03-09T23:00:47.008Z,6.60
2019-03-09T23:03:14.794Z,6.60
2019-03-09T23:05:42.424Z,6.60
2019-03-09T23:08:12.756Z,6.60
2019-03-09T23:10:41.501Z,6.70
2019-03-09T23:13:10.501Z,6.70
2019-03-09T23:15:40.232Z,6.70
2019-03-09T23:18:08.191Z,6.80
2019-03-09T23:20:37.558Z,6.80
2019-03-09T23:23:07.236Z,6.80
2019-03-09T23:25:35.215Z,6.90
2019-03-09T23:28:04.002Z,6.90
2019-03-09T23:30:49.210Z,6.90
2019-03-09T23:33:21.661Z,6.80
2019-03-09T23:35:49.279Z,6.90
2019-03-09T23:38:16.875Z,6.80
2019-03-09T23:40:44.666Z,6.90
2019-03-09T23:43:12.357Z,6.90
2019-03-09T23:45:41.576Z,6.90
2019-03-09T23:48:10.295Z,6.80
2019-03-09T23:50:39.932Z,6.80
2019-03-09T23:53:07.738Z,6.80
2019-03-09T23:55:35.535Z,6.80
2019-03-09T23:58:03.483Z,6.80
